Time;durP1;ratioP1;P1;durP2;ratioP2;P2;SDS_P1;SDS_P2;PMS_P1;PMS_P2;Temp;Humidity;BMP_temperature;BMP_pressure;BME280_temperature;BME280_humidity;BME280_pressure;Samples;Min_cycle;Max_cycle;Signal;HPM_P1;HPM_P2
2024/03/04 00:02:09;;;;;;;8.50;7.37;;;5.10;99.90;;;5.90;100.00;96606.66;10320999;28;20317;-64
2024/03/04 00:07:12;;;;;;;8.37;7.50;;;5.00;99.90;;;5.82;100.00;96609.63;10311797;28;20361;-64
2024/03/04 00:12:17;;;;;;;9.43;8.30;;;5.00;99.90;;;5.78;100.00;96607.72;10314550;28;20321;-64
2024/03/04 00:17:20;;;;;;;9.10;8.20;;;5.00;99.90;;;5.70;100.00;96620.75;10310862;28;20229;-64
2024/03/04 00:22:24;;;;;;;8.33;7.17;;;4.90;99.90;;;5.62;100.00;96627.94;10311318;28;20313;-64
2024/03/04 00:27:28;;;;;;;7.80;7.00;;;4.80;99.90;;;5.58;100.00;96638.66;10318613;28;20297;-64
2024/03/04 00:32:31;;;;;;;8.17;7.37;;;4.80;99.90;;;5.56;100.00;96641.13;10319754;28;20361;-64
2024/03/04 00:37:34;;;;;;;7.97;7.20;;;4.70;99.90;;;5.52;100.00;96648.47;10317705;28;20238;-64
2024/03/04 00:42:39;;;;;;;7.83;7.03;;;4.70;99.90;;;5.48;100.00;96659.22;10306048;28;20223;-64
2024/03/04 00:47:43;;;;;;;7.57;6.77;;;4.60;99.90;;;5.48;100.00;96661.75;10310529;28;20237;-64
2024/03/04 00:52:46;;;;;;;7.90;7.17;;;4.60;99.90;;;5.43;100.00;96672.50;10311151;28;20234;-64
2024/03/04 00:57:51;;;;;;;8.53;7.70;;;4.60;99.90;;;5.29;100.00;96673.34;10309716;28;20222;-64
2024/03/04 01:02:54;;;;;;;8.47;7.67;;;4.50;99.90;;;5.24;100.00;96679.84;10343170;23;20228;-68
2024/03/04 01:07:58;;;;;;;7.40;6.17;;;4.40;99.90;;;5.31;100.00;96692.06;10348280;28;20296;-67
2024/03/04 01:13:02;;;;;;;7.50;6.90;;;4.40;99.90;;;5.18;100.00;96692.16;10346609;28;20234;-68
2024/03/04 01:18:09;;;;;;;7.77;6.97;;;4.40;99.90;;;5.14;100.00;96700.34;10349037;28;20230;-67
2024/03/04 01:23:12;;;;;;;8.53;7.73;;;4.30;99.90;;;5.13;100.00;96708.72;10344580;28;20601;-67
2024/03/04 01:28:17;;;;;;;8.07;7.37;;;4.30;99.90;;;5.04;100.00;96715.78;10347488;28;20258;-68
2024/03/04 01:33:20;;;;;;;8.70;7.90;;;4.30;99.90;;;5.09;100.00;96721.97;10345277;28;20321;-67
2024/03/04 01:38:23;;;;;;;8.17;7.33;;;4.30;99.90;;;5.04;100.00;96720.84;10348163;28;21056;-67
2024/03/04 01:43:28;;;;;;;9.00;7.30;;;4.30;99.90;;;5.10;100.00;96724.63;10344681;28;20233;-65
2024/03/04 01:48:32;;;;;;;7.63;6.83;;;4.30;99.90;;;5.13;100.00;96739.13;10345493;28;20387;-65
2024/03/04 01:53:37;;;;;;;8.07;7.37;;;4.30;99.90;;;4.95;100.00;96741.41;10347304;28;20372;-66
2024/03/04 01:58:45;;;;;;;8.97;8.07;;;4.20;99.90;;;4.89;100.00;96739.41;10344485;28;20222;-63
2024/03/04 02:03:50;;;;;;;9.43;8.53;;;4.20;99.90;;;4.94;100.00;96743.06;10346636;28;20262;-65
2024/03/04 02:08:53;;;;;;;8.93;8.13;;;4.20;99.90;;;5.03;100.00;96762.13;10345359;28;20239;-65
2024/03/04 02:13:58;;;;;;;8.33;7.53;;;4.30;99.90;;;5.14;100.00;96762.00;10347048;28;20226;-64
2024/03/04 02:19:01;;;;;;;8.00;7.23;;;4.20;99.90;;;5.05;100.00;96765.63;10347556;28;20221;-65
2024/03/04 02:24:06;;;;;;;7.80;7.00;;;4.20;99.90;;;5.18;100.00;96768.13;10348025;28;20307;-65
2024/03/04 02:29:10;;;;;;;8.47;7.53;;;4.40;99.90;;;5.33;100.00;96768.16;10346605;28;20626;-64
2024/03/04 02:34:14;;;;;;;8.50;7.57;;;4.50;99.90;;;5.48;100.00;96788.47;10348337;28;20254;-64
2024/03/04 02:39:19;;;;;;;9.17;8.00;;;4.60;99.90;;;5.50;100.00;96789.44;10346063;28;20245;-64
2024/03/04 02:44:22;;;;;;;8.87;8.00;;;4.70;99.90;;;5.62;100.00;96793.53;10343183;28;20717;-65
2024/03/04 02:49:25;;;;;;;7.90;7.10;;;4.80;99.90;;;5.67;100.00;96798.03;10335099;28;20231;-65
2024/03/04 02:54:30;;;;;;;8.57;7.70;;;4.90;99.90;;;5.74;100.00;96793.38;10343446;28;20235;-65
2024/03/04 02:59:33;;;;;;;8.33;7.53;;;4.90;99.90;;;5.81;100.00;96805.66;10354917;28;21903;-67
2024/03/04 03:04:36;;;;;;;8.33;7.53;;;5.10;99.90;;;5.92;100.00;96818.91;10351691;28;20309;-68
2024/03/04 03:09:40;;;;;;;8.30;7.50;;;5.20;99.90;;;6.06;100.00;96817.22;10356583;28;20621;-68
2024/03/04 03:14:43;;;;;;;16.93;14.20;;;5.30;99.90;;;6.17;100.00;96816.16;10350289;28;20309;-68
2024/03/04 03:19:47;;;;;;;26.83;20.93;;;5.40;99.90;;;6.63;100.00;96823.81;10353549;28;20244;-68
2024/03/04 03:24:51;;;;;;;28.40;22.07;;;6.10;99.90;;;6.90;100.00;96827.00;10355119;28;20321;-67
2024/03/04 03:29:55;;;;;;;25.53;21.77;;;6.40;99.90;;;7.11;100.00;96849.28;10354046;28;20275;-68
2024/03/04 03:34:58;;;;;;;27.47;22.03;;;6.60;99.90;;;7.48;100.00;96862.28;10353179;28;20236;-68
2024/03/04 03:40:04;;;;;;;26.93;22.50;;;6.80;99.90;;;7.60;100.00;96855.28;10350884;28;20720;-68
2024/03/04 03:45:09;;;;;;;26.23;21.07;;;6.90;99.90;;;7.57;100.00;96872.91;10341669;28;20226;-67
2024/03/04 03:50:12;;;;;;;23.00;19.90;;;7.00;99.90;;;7.95;100.00;96875.69;10340462;28;20249;-68
2024/03/04 03:55:16;;;;;;;23.07;19.60;;;7.30;99.90;;;7.83;100.00;96889.53;10338773;28;20237;-66
2024/03/04 04:00:20;;;;;;;20.43;18.23;;;7.20;99.90;;;7.76;100.00;96899.31;10341528;28;20238;-65
2024/03/04 04:05:23;;;;;;;21.43;17.97;;;7.10;99.90;;;7.81;100.00;96913.13;10340055;28;20611;-66
2024/03/04 04:10:28;;;;;;;21.63;19.30;;;7.10;99.90;;;7.77;100.00;96921.41;10337075;28;20317;-65
2024/03/04 04:15:31;;;;;;;24.33;20.37;;;7.10;99.90;;;7.85;100.00;96922.69;10338381;28;20234;-65
2024/03/04 04:20:34;;;;;;;22.30;19.80;;;7.10;99.90;;;7.90;100.00;96926.34;10338046;28;20233;-65
2024/03/04 04:25:39;;;;;;;24.83;21.40;;;7.20;99.90;;;7.92;100.00;96932.38;10341621;28;20232;-65
2024/03/04 04:30:43;;;;;;;23.50;20.07;;;7.20;99.90;;;7.95;100.00;96945.25;10338565;28;20625;-65
2024/03/04 04:35:46;;;;;;;24.30;19.77;;;7.20;99.90;;;7.95;100.00;96952.88;10338425;28;21380;-65
2024/03/04 04:40:51;;;;;;;26.27;22.20;;;7.20;99.90;;;8.02;100.00;96960.06;10340176;28;20800;-66
2024/03/04 04:45:54;;;;;;;25.47;21.07;;;7.30;99.90;;;7.96;100.00;96964.84;10331617;28;20222;-65
2024/03/04 04:50:58;;;;;;;27.57;22.57;;;7.30;99.90;;;8.07;100.00;96973.91;10340585;28;20226;-65
2024/03/04 04:56:02;;;;;;;29.40;22.57;;;7.30;99.90;;;8.09;100.00;96962.13;10338280;28;20226;-64
2024/03/04 05:01:05;;;;;;;28.63;23.53;;;7.30;99.90;;;8.16;100.00;96981.16;10331365;28;20332;-66
2024/03/04 05:06:15;;;;;;;32.57;25.70;;;7.40;99.90;;;8.23;100.00;96990.84;10335757;28;20242;-66
2024/03/04 05:11:21;;;;;;;32.57;25.13;;;7.40;99.90;;;8.27;100.00;96986.75;10336665;28;20249;-65
2024/03/04 05:16:24;;;;;;;32.57;25.40;;;7.50;99.90;;;8.28;100.00;97001.25;10347864;28;20237;-66
2024/03/04 05:21:27;;;;;;;35.57;28.17;;;7.50;99.90;;;8.30;100.00;96997.13;10351089;28;20237;-65
2024/03/04 05:26:32;;;;;;;32.80;26.13;;;7.50;99.90;;;8.41;100.00;97006.22;10351835;28;20708;-65
2024/03/04 05:31:35;;;;;;;36.00;27.33;;;7.60;99.90;;;8.33;100.00;96999.84;10350398;28;20238;-65
2024/03/04 05:36:44;;;;;;;38.00;28.07;;;7.60;99.90;;;8.44;100.00;97015.69;10355612;28;20226;-64
2024/03/04 05:41:49;;;;;;;37.03;27.97;;;7.70;99.90;;;8.47;100.00;97026.91;10354969;28;20784;-66
2024/03/04 05:46:52;;;;;;;35.83;27.20;;;7.70;99.90;;;8.55;100.00;97027.28;10354185;28;20571;-66
2024/03/04 05:51:58;;;;;;;36.60;27.67;;;7.70;99.90;;;8.56;100.00;97027.38;10356201;28;20234;-66
2024/03/04 05:57:04;;;;;;;38.97;28.40;;;7.70;99.90;;;8.61;100.00;97034.38;10354173;28;20652;-65
2024/03/04 06:02:08;;;;;;;38.07;29.27;;;7.70;99.90;;;8.53;100.00;97042.50;10357437;28;20229;-66
2024/03/04 06:07:11;;;;;;;36.30;28.00;;;7.80;99.90;;;8.63;100.00;97050.63;10356848;28;21052;-65
2024/03/04 06:12:16;;;;;;;35.23;26.10;;;7.80;99.90;;;8.63;100.00;97055.72;10358369;28;20272;-66
2024/03/04 06:17:19;;;;;;;39.50;28.90;;;7.80;99.90;;;8.64;100.00;97054.91;10356699;28;20706;-66
2024/03/04 06:22:22;;;;;;;38.37;28.80;;;7.90;99.90;;;8.65;100.00;97056.66;10356509;28;23560;-66
2024/03/04 06:27:28;;;;;;;42.20;29.90;;;7.90;99.90;;;8.79;100.00;97066.75;10359189;28;20714;-65
2024/03/04 06:32:31;;;;;;;45.00;30.43;;;7.90;99.90;;;8.71;100.00;97072.28;10359141;28;20230;-66
2024/03/04 06:37:34;;;;;;;39.50;29.37;;;7.90;99.90;;;8.80;100.00;97072.72;10356644;28;20229;-65
2024/03/04 06:42:38;;;;;;;41.60;31.23;;;7.90;99.90;;;8.74;100.00;97080.06;10357577;28;20422;-66
2024/03/04 06:47:42;;;;;;;41.03;29.80;;;7.90;99.90;;;8.83;100.00;97084.75;10358501;28;20850;-64
2024/03/04 06:52:45;;;;;;;43.40;31.37;;;8.00;99.90;;;8.81;100.00;97089.75;10354069;28;20709;-66
2024/03/04 06:57:49;;;;;;;45.63;32.70;;;8.00;99.90;;;8.94;100.00;97097.25;10360304;28;20230;-66
2024/03/04 07:02:53;;;;;;;48.03;33.27;;;8.00;99.90;;;8.84;100.00;97104.34;10358103;28;20345;-66
2024/03/04 07:07:56;;;;;;;46.43;33.03;;;8.00;99.90;;;8.83;100.00;97118.75;10355620;28;20246;-65
2024/03/04 07:13:01;;;;;;;43.30;31.13;;;8.00;99.90;;;8.86;100.00;97118.91;10357025;28;20222;-67
2024/03/04 07:18:05;;;;;;;44.10;31.17;;;8.10;99.90;;;8.90;100.00;97112.28;10354544;28;20251;-66
2024/03/04 07:23:09;;;;;;;53.03;33.83;;;8.10;99.90;;;8.89;100.00;97124.16;10357722;28;20852;-66
2024/03/04 07:28:14;;;;;;;45.70;33.03;;;8.10;99.90;;;8.91;100.00;97117.47;10357982;28;20230;-66
2024/03/04 07:33:17;;;;;;;46.20;32.77;;;8.10;99.90;;;9.01;100.00;97129.91;10357636;28;20741;-66
2024/03/04 07:38:20;;;;;;;45.50;33.40;;;8.20;99.90;;;9.22;100.00;97139.44;10355039;28;20253;-66
2024/03/04 07:43:25;;;;;;;49.67;34.67;;;8.30;99.90;;;9.21;100.00;97137.66;10361092;28;20721;-65
2024/03/04 07:48:28;;;;;;;48.97;34.60;;;8.30;99.90;;;9.31;99.93;97149.22;10362530;28;20594;-65
2024/03/04 07:53:31;;;;;;;51.57;34.10;;;8.30;99.90;;;9.08;100.00;97150.59;10363255;28;20721;-66
2024/03/04 07:58:36;;;;;;;51.65;34.42;;;8.30;99.90;;;9.10;100.00;97159.19;10362414;28;20249;-66
2024/03/04 08:03:39;;;;;;;48.33;33.43;;;8.30;99.90;;;9.21;100.00;97173.34;10361785;28;20241;-65
2024/03/04 08:08:44;;;;;;;50.27;35.13;;;8.40;99.90;;;9.21;100.00;97174.25;10365444;28;20229;-64
2024/03/04 08:13:48;;;;;;;48.45;34.05;;;8.40;99.90;;;9.22;100.00;97180.22;10362281;28;20721;-65
2024/03/04 08:18:52;;;;;;;52.58;35.15;;;8.40;99.90;;;9.22;100.00;97185.31;10361382;28;20230;-66
2024/03/04 08:23:55;;;;;;;53.90;36.50;;;8.40;99.90;;;9.18;100.00;97194.47;10364834;28;20258;-66
2024/03/04 08:28:59;;;;;;;53.65;35.80;;;8.40;99.90;;;9.28;100.00;97198.38;10360676;28;20318;-66
2024/03/04 08:34:04;;;;;;;55.70;37.13;;;8.50;99.90;;;9.36;99.21;97202.22;10361371;28;20230;-72
2024/03/04 08:39:08;;;;;;;54.08;35.47;;;8.40;99.90;;;9.30;100.00;97208.66;10362960;28;20229;-65
2024/03/04 08:44:13;;;;;;;60.83;37.75;;;8.50;99.90;;;9.18;100.00;97217.41;10360616;28;20603;-67
2024/03/04 08:49:16;;;;;;;61.73;38.47;;;8.40;99.90;;;9.24;100.00;97219.41;10360961;28;20226;-66
2024/03/04 08:54:19;;;;;;;57.40;36.83;;;8.40;99.90;;;9.41;100.00;97222.81;10359312;28;20230;-66
2024/03/04 08:59:24;;;;;;;54.25;35.47;;;8.40;99.90;;;9.49;98.96;97231.75;10362323;28;20362;-66
2024/03/04 09:04:27;;;;;;;57.38;36.72;;;8.60;99.90;;;9.28;99.66;97236.63;10359065;28;20748;-64
2024/03/04 09:09:31;;;;;;;57.93;35.37;;;8.50;99.90;;;9.27;100.00;97242.53;10358986;28;20222;-67
2024/03/04 09:14:36;;;;;;;63.20;38.60;;;8.50;99.90;;;9.29;100.00;97247.72;10357028;28;20734;-66
2024/03/04 09:19:41;;;;;;;58.47;37.35;;;8.50;99.90;;;9.39;100.00;97238.06;10358403;28;20224;-66
2024/03/04 09:24:45;;;;;;;63.08;38.55;;;8.50;99.90;;;9.25;100.00;97246.69;10360762;28;20222;-65
2024/03/04 09:29:49;;;;;;;69.68;38.90;;;8.50;99.90;;;9.33;100.00;97250.50;10361303;28;20234;-66
2024/03/04 09:34:53;;;;;;;64.65;38.70;;;8.50;99.90;;;9.17;100.00;97253.03;10357313;28;20273;-66
2024/03/04 09:39:56;;;;;;;65.93;37.63;;;8.40;99.90;;;9.18;100.00;97259.88;10357749;28;20617;-66
2024/03/04 09:45:00;;;;;;;73.57;41.80;;;8.50;99.90;;;9.16;100.00;97264.06;10359754;28;20275;-66
2024/03/04 09:50:05;;;;;;;69.37;40.70;;;8.40;99.90;;;9.20;100.00;97265.94;10359717;28;20321;-65
2024/03/04 09:55:10;;;;;;;68.87;39.90;;;8.40;99.90;;;9.24;100.00;97271.31;10358400;28;20312;-65
2024/03/04 10:00:15;;;;;;;74.93;41.22;;;8.40;99.90;;;9.33;100.00;97270.00;10357552;28;20686;-66
2024/03/04 10:05:18;;;;;;;141.70;83.80;;;8.50;99.90;;;9.28;100.00;97272.34;10357638;28;20245;-65
2024/03/04 10:10:22;;;;;;;85.50;47.37;;;8.50;99.90;;;9.18;100.00;97273.50;10359224;28;20325;-65
2024/03/04 10:15:28;;;;;;;90.68;50.35;;;8.40;99.90;;;9.22;100.00;97277.13;10355246;28;20717;-66
2024/03/04 10:20:32;;;;;;;75.87;42.27;;;8.50;99.90;;;9.13;100.00;97286.81;10356906;28;20705;-66
2024/03/04 10:25:36;;;;;;;83.45;43.05;;;8.40;99.90;;;9.11;100.00;97289.28;10358283;28;20234;-65
2024/03/04 10:30:40;;;;;;;82.77;45.33;;;8.40;99.90;;;9.12;100.00;97280.84;10352088;28;20222;-65
2024/03/04 10:35:44;;;;;;;98.77;48.33;;;8.50;99.90;;;9.28;100.00;97289.31;10354626;28;20282;-66
2024/03/04 10:40:47;;;;;;;90.30;45.78;;;8.50;99.90;;;9.16;100.00;97277.66;10353413;28;20222;-67
2024/03/04 10:45:52;;;;;;;82.93;44.05;;;8.50;99.90;;;9.40;100.00;97303.56;10351016;28;20225;-66
2024/03/04 10:50:55;;;;;;;115.95;48.75;;;8.60;99.90;;;9.51;100.00;97300.72;10351569;28;20370;-66
2024/03/04 10:56:05;;;;;;;83.72;42.58;;;8.70;99.90;;;9.66;100.00;97294.72;10355581;28;20254;-65
2024/03/04 11:01:17;;;;;;;84.22;43.58;;;8.90;99.90;;;9.82;100.00;97293.84;10337726;28;20525;-65
2024/03/04 11:06:23;;;;;;;90.05;46.22;;;8.90;99.90;;;9.73;100.00;97289.91;10350517;28;20226;-65
2024/03/04 11:11:34;;;;;;;89.90;46.55;;;8.90;99.90;;;9.99;100.00;97291.25;10349415;28;20234;-65
2024/03/04 11:16:46;;;;;;;89.88;45.63;;;9.20;99.90;;;10.01;100.00;97287.09;10357825;28;20233;-64
2024/03/04 11:21:53;;;;;;;84.70;44.95;;;9.30;99.90;;;9.93;100.00;97291.81;10360705;28;21926;-65
2024/03/04 11:26:57;;;;;;;83.25;43.28;;;9.20;99.90;;;10.01;100.00;97289.63;10358821;28;20214;-65
2024/03/04 11:32:05;;;;;;;84.78;44.85;;;9.30;99.90;;;10.14;100.00;97289.47;10357265;28;20239;-65
2024/03/04 11:37:08;;;;;;;83.00;44.08;;;9.40;99.90;;;10.19;100.00;97290.56;10357674;28;20690;-65
2024/03/04 11:42:38;;;;;;;77.55;41.85;;;9.40;99.90;;;10.03;100.00;97288.03;10359491;28;20608;-66
2024/03/04 11:47:42;;;;;;;76.05;43.28;;;9.30;99.90;;;10.25;99.89;97293.41;10359237;28;20250;-67
2024/03/04 11:52:45;;;;;;;75.78;41.58;;;9.40;99.90;;;10.23;98.58;97299.25;10357427;28;20230;-65
2024/03/04 11:57:50;;;;;;;71.20;39.88;;;9.40;99.90;;;10.25;100.00;97298.53;10359679;28;20648;-65
2024/03/04 12:03:02;;;;;;;73.78;40.45;;;9.40;99.90;;;10.26;99.93;97295.16;10358369;28;20234;-65
2024/03/04 12:08:06;;;;;;;68.53;38.47;;;9.40;99.90;;;10.24;98.78;97299.31;10359417;28;20225;-67
2024/03/04 12:13:35;;;;;;;68.97;39.78;;;9.40;99.90;;;10.13;99.36;97300.47;10358914;28;20226;-67
2024/03/04 12:18:40;;;;;;;67.90;40.75;;;9.30;99.90;;;10.19;98.36;97311.00;10357429;28;20222;-66
2024/03/04 12:23:43;;;;;;;74.80;40.15;;;9.40;99.90;;;10.24;99.27;97311.19;10358063;28;20729;-66
2024/03/04 12:28:59;;;;;;;65.18;37.53;;;9.40;99.90;;;10.33;97.25;97309.13;10357794;28;20325;-66
2024/03/04 12:34:05;;;;;;;68.32;38.67;;;9.40;99.90;;;10.45;97.59;97304.63;10358297;28;20237;-67
2024/03/04 12:39:12;;;;;;;75.82;40.20;;;9.50;99.90;;;10.31;96.99;97301.41;10356868;28;20237;-67
2024/03/04 12:44:20;;;;;;;71.60;40.08;;;9.40;99.90;;;10.25;96.15;97301.06;10354201;28;20238;-66
2024/03/04 12:49:24;;;;;;;71.88;41.58;;;9.40;99.90;;;10.23;97.13;97302.66;10355747;28;20230;-66
2024/03/04 12:54:31;;;;;;;75.07;40.80;;;9.30;99.90;;;10.24;96.79;97299.31;10357409;28;20242;-66
2024/03/04 12:59:36;;;;;;;72.13;40.45;;;9.30;99.90;;;10.16;96.60;97295.53;10357238;28;20234;-66
2024/03/04 13:04:40;;;;;;;68.38;39.78;;;9.30;99.90;;;10.10;98.21;97295.19;10355420;28;20777;-66
2024/03/04 13:09:43;;;;;;;68.75;40.08;;;9.30;99.90;;;10.11;97.47;97295.28;10358497;28;20601;-67
2024/03/04 13:14:48;;;;;;;65.88;40.08;;;9.30;99.90;;;10.18;97.67;97299.00;10354452;28;20238;-66
2024/03/04 13:19:51;;;;;;;64.55;39.65;;;9.30;99.90;;;10.25;96.40;97293.41;10354813;28;20230;-66
2024/03/04 13:24:56;;;;;;;64.45;39.88;;;9.30;99.90;;;10.23;96.04;97300.13;10356318;28;20230;-67
2024/03/04 13:30:02;;;;;;;63.65;39.38;;;9.30;99.90;;;10.25;96.81;97306.19;10356746;28;20281;-66
2024/03/04 13:35:07;;;;;;;71.57;42.83;;;9.30;99.90;;;10.12;96.86;97294.47;10354804;28;20226;-67
2024/03/04 13:40:12;;;;;;;68.25;39.67;;;9.20;99.90;;;10.02;98.24;97302.50;10355892;28;20226;-64
2024/03/04 13:45:17;;;;;;;148.98;87.30;;;9.20;99.90;;;9.81;97.65;97302.28;10357174;28;20233;-65
2024/03/04 13:50:20;;;;;;;62.35;38.55;;;9.00;99.90;;;9.85;97.03;97293.97;10353028;28;20230;-65
2024/03/04 13:55:23;;;;;;;57.45;36.58;;;9.10;99.90;;;9.95;97.71;97295.31;10356518;28;20234;-67
2024/03/04 14:00:28;;;;;;;56.65;38.33;;;9.10;99.90;;;9.95;98.01;97290.22;10352166;28;20257;-66
2024/03/04 14:05:31;;;;;;;62.00;39.65;;;9.20;99.90;;;10.11;97.74;97291.84;10355016;28;20319;-66
2024/03/04 14:10:37;;;;;;;59.08;36.30;;;9.20;99.90;;;10.24;96.12;97288.22;10352361;28;20353;-66
2024/03/04 14:15:42;;;;;;;57.83;35.40;;;9.30;99.90;;;10.17;96.22;97281.94;10354841;28;20257;-66
2024/03/04 14:20:48;;;;;;;48.60;33.17;;;9.30;99.90;;;10.28;94.81;97282.50;10351832;28;20230;-66
2024/03/04 14:25:52;;;;;;;44.00;30.38;;;9.40;99.90;;;10.35;93.97;97282.84;10354562;28;20280;-66
2024/03/04 14:30:57;;;;;;;45.67;31.85;;;9.40;99.90;;;10.35;94.15;97293.06;10354081;28;20233;-67
2024/03/04 14:36:00;;;;;;;47.40;31.98;;;9.50;99.90;;;10.33;94.18;97287.03;10355722;28;20325;-68
2024/03/04 14:41:04;;;;;;;39.25;28.65;;;9.50;99.90;;;10.40;93.79;97290.75;10350863;28;20276;-66
2024/03/04 14:46:08;;;;;;;40.47;28.25;;;9.40;99.90;;;10.33;92.71;97291.25;10348994;28;20230;-66
2024/03/04 14:51:14;;;;;;;40.30;27.50;;;9.40;99.90;;;10.33;92.63;97288.69;10356996;28;20306;-67
2024/03/04 14:56:18;;;;;;;37.90;26.48;;;9.40;99.90;;;10.27;90.74;97294.41;10358836;28;20694;-67
2024/03/04 15:01:22;;;;;;;33.38;24.73;;;9.40;99.90;;;10.11;91.79;97294.41;10358403;28;20284;-67
2024/03/04 15:06:26;;;;;;;35.13;23.73;;;9.30;99.90;;;10.14;91.48;97297.13;10359905;28;20620;-66
2024/03/04 15:11:29;;;;;;;32.75;23.55;;;9.30;99.90;;;10.17;91.77;97301.50;10358541;28;20230;-66
2024/03/04 15:16:35;;;;;;;36.05;26.67;;;9.30;99.90;;;10.22;91.58;97293.25;10359977;28;20233;-66
2024/03/04 15:21:38;;;;;;;33.30;23.30;;;9.40;99.90;;;10.22;91.79;97295.81;10358199;28;20657;-66
2024/03/04 15:26:41;;;;;;;30.35;21.75;;;9.40;99.90;;;10.18;90.71;97291.34;10357681;28;21950;-66
2024/03/04 15:31:46;;;;;;;32.03;21.70;;;9.40;99.90;;;10.26;89.96;97301.94;10358375;28;20226;-65
2024/03/04 15:36:49;;;;;;;28.00;20.50;;;9.40;99.90;;;10.11;90.12;97296.97;10350011;28;20594;-65
2024/03/04 15:41:53;;;;;;;36.42;25.67;;;9.30;99.90;;;10.14;89.75;97298.00;10357143;28;20227;-66
2024/03/04 15:46:58;;;;;;;33.10;23.65;;;9.30;99.90;;;10.12;90.55;97311.47;10359830;28;20226;-66
2024/03/04 15:52:01;;;;;;;33.25;25.58;;;9.20;99.90;;;10.06;89.82;97308.63;10358252;28;20226;-67
2024/03/04 15:57:05;;;;;;;30.67;24.05;;;9.20;99.90;;;9.98;90.21;97315.00;10351356;28;20381;-66
2024/03/04 16:02:09;;;;;;;39.70;28.23;;;9.20;99.90;;;9.89;91.81;97316.31;10357158;28;20226;-66
2024/03/04 16:07:13;;;;;;;39.53;27.23;;;9.10;99.90;;;9.88;90.52;97309.44;10359528;28;20231;-65
2024/03/04 16:12:16;;;;;;;37.15;27.25;;;9.10;99.90;;;9.85;91.48;97313.53;10354715;28;20222;-64
2024/03/04 16:17:20;;;;;;;37.25;27.63;;;9.00;99.90;;;9.81;92.44;97306.50;10349551;28;20262;-66
2024/03/04 16:22:24;;;;;;;40.83;27.92;;;9.00;99.90;;;9.87;91.38;97309.34;10352123;28;20257;-66
2024/03/04 16:27:27;;;;;;;40.70;27.85;;;9.00;99.90;;;9.85;90.70;97324.63;10354738;28;20226;-64
2024/03/04 16:32:31;;;;;;;37.72;28.05;;;9.00;99.90;;;9.82;91.89;97326.13;10351045;28;20268;-66
2024/03/04 16:37:35;;;;;;;38.42;27.58;;;9.00;99.90;;;9.79;92.34;97329.41;10350728;28;20515;-66
2024/03/04 16:42:39;;;;;;;38.05;28.17;;;9.00;99.90;;;9.74;91.38;97335.94;10349853;28;20816;-67
2024/03/04 16:47:43;;;;;;;42.42;29.52;;;8.90;99.90;;;9.74;92.44;97335.06;10353078;28;20994;-67
2024/03/04 16:52:47;;;;;;;40.70;30.25;;;8.90;99.90;;;9.71;92.52;97340.91;10357198;28;20349;-67
2024/03/04 16:57:52;;;;;;;36.30;26.17;;;8.90;99.90;;;9.70;93.25;97337.47;10356458;28;20385;-65
2024/03/04 17:02:56;;;;;;;42.95;30.38;;;8.90;99.90;;;9.67;92.47;97338.97;10351888;28;20234;-67
2024/03/04 17:08:02;;;;;;;41.13;30.02;;;8.90;99.90;;;9.63;93.44;97340.47;10353638;28;20254;-67
2024/03/04 17:13:05;;;;;;;44.05;32.80;;;8.80;99.90;;;9.65;93.92;97346.56;10338409;28;20253;-66
2024/03/04 17:18:10;;;;;;;44.17;32.75;;;8.80;99.90;;;9.63;94.01;97349.81;10348141;28;20238;-67
2024/03/04 17:23:14;;;;;;;46.40;32.33;;;8.80;99.90;;;9.58;93.49;97358.91;10349083;28;20701;-67
2024/03/04 17:28:18;;;;;;;51.33;34.15;;;8.70;99.90;;;9.57;93.96;97362.25;10347698;28;20221;-66
2024/03/04 17:33:23;;;;;;;47.83;33.63;;;8.80;99.90;;;9.52;93.80;97373.88;10352736;28;20226;-67
2024/03/04 17:38:26;;;;;;;44.45;31.80;;;8.70;99.90;;;9.48;94.04;97372.84;10351419;28;20603;-67
2024/03/04 17:43:29;;;;;;;43.70;31.67;;;8.70;99.90;;;9.50;94.87;97375.47;10348231;28;20226;-67
2024/03/04 17:48:34;;;;;;;47.83;33.97;;;8.70;99.90;;;9.48;94.63;97383.94;10347836;28;20222;-67
2024/03/04 17:53:38;;;;;;;49.13;30.55;;;8.70;99.90;;;9.45;94.88;97383.78;10352425;28;20288;-67
2024/03/04 17:58:42;;;;;;;41.63;29.40;;;8.70;99.90;;;9.45;94.91;97388.88;10347552;28;20645;-64
2024/03/04 18:03:47;;;;;;;38.67;27.92;;;8.70;99.90;;;9.44;95.93;97384.56;10346189;28;20369;-66
2024/03/04 18:08:50;;;;;;;40.90;29.27;;;8.60;99.90;;;9.44;96.50;97389.69;10347611;28;20702;-65
2024/03/04 18:13:54;;;;;;;38.35;27.40;;;8.70;99.90;;;9.42;95.87;97378.50;10342030;28;20781;-66
2024/03/04 18:18:58;;;;;;;43.75;30.08;;;8.60;99.90;;;9.29;95.90;97395.59;10342955;28;20226;-66
2024/03/04 18:24:01;;;;;;;37.10;26.70;;;8.50;99.90;;;9.28;95.99;97397.28;10345049;28;20571;-65
2024/03/04 18:29:05;;;;;;;40.58;28.00;;;8.50;99.90;;;9.26;97.76;97391.22;10344000;28;20313;-67
2024/03/04 18:34:09;;;;;;;39.83;30.50;;;8.60;99.90;;;9.28;97.14;97389.63;10345551;28;20316;-66
2024/03/04 18:39:17;;;;;;;41.97;31.80;;;8.50;99.90;;;9.32;97.16;97405.97;10341644;28;20229;-66
2024/03/04 18:44:20;;;;;;;41.50;30.40;;;8.50;99.90;;;9.33;97.19;97406.06;10343898;28;20814;-66
2024/03/04 18:49:24;;;;;;;41.33;30.38;;;8.50;99.90;;;9.27;97.51;97407.38;10353788;28;20222;-66
2024/03/04 18:54:28;;;;;;;49.33;33.83;;;8.40;99.90;;;9.27;97.25;97400.66;10349500;28;20318;-66
2024/03/04 18:59:31;;;;;;;46.88;34.55;;;8.50;99.90;;;9.27;97.37;97399.75;10351610;23;20611;-66
2024/03/04 19:04:39;;;;;;;40.17;31.13;;;8.50;99.90;;;9.27;97.84;97403.19;10360353;28;20305;-66
2024/03/04 19:09:43;;;;;;;44.58;30.85;;;8.50;99.90;;;9.21;98.67;97403.75;10361827;28;20238;-66
2024/03/04 19:14:46;;;;;;;41.92;30.95;;;8.40;99.90;;;9.20;98.77;97417.25;10328454;28;20299;-65
2024/03/04 19:19:50;;;;;;;47.67;33.53;;;8.40;99.90;;;9.18;99.08;97420.50;10335905;28;20241;-65
2024/03/04 19:24:54;;;;;;;42.33;30.48;;;8.40;99.90;;;9.22;98.76;97419.91;10333542;28;21057;-66
2024/03/04 19:29:57;;;;;;;44.08;32.58;;;8.40;99.90;;;9.19;99.66;97429.94;10327185;28;20244;-67
2024/03/04 19:35:02;;;;;;;51.40;35.90;;;8.40;99.90;;;9.15;99.08;97425.44;10333655;28;20375;-65
2024/03/04 19:40:10;;;;;;;48.57;34.37;;;8.40;99.90;;;9.15;99.84;97423.78;10341192;28;20238;-64
2024/03/04 19:45:14;;;;;;;46.60;33.33;;;8.40;99.90;;;9.18;99.44;97430.72;10336483;28;20273;-67
2024/03/04 19:50:20;;;;;;;42.75;30.50;;;8.40;99.90;;;9.17;99.86;97422.19;10339298;28;20237;-66
2024/03/04 19:55:23;;;;;;;42.58;30.85;;;8.40;99.90;;;9.22;99.10;97419.91;10340666;28;20242;-66
2024/03/04 20:00:27;;;;;;;48.58;33.65;;;8.30;99.90;;;9.17;99.54;97426.41;10340425;28;20245;-67
2024/03/04 20:05:31;;;;;;;45.25;31.92;;;8.30;99.90;;;9.17;100.00;97429.84;10346362;28;20233;-66
2024/03/04 20:10:36;;;;;;;40.78;29.15;;;8.30;99.90;;;9.11;100.00;97432.06;10344588;28;20230;-65
2024/03/04 20:15:39;;;;;;;41.47;29.00;;;8.30;99.90;;;9.08;100.00;97431.88;10341106;28;20255;-67
2024/03/04 20:20:44;;;;;;;39.08;27.48;;;8.30;99.90;;;9.10;100.00;97437.06;10338298;28;20245;-67
2024/03/04 20:25:47;;;;;;;40.70;28.98;;;8.30;99.90;;;9.09;100.00;97445.50;10335409;28;20230;-66
2024/03/04 20:30:52;;;;;;;40.13;29.50;;;8.30;99.90;;;9.10;100.00;97439.59;10335415;28;20253;-66
2024/03/04 20:35:57;;;;;;;39.70;28.88;;;8.30;99.90;;;9.12;100.00;97443.13;10342137;28;20237;-66
2024/03/04 20:41:01;;;;;;;42.40;29.55;;;8.30;99.90;;;9.09;100.00;97445.50;10337988;28;20797;-67
2024/03/04 20:46:07;;;;;;;43.03;29.80;;;8.30;99.90;;;9.12;100.00;97453.31;10343721;28;20237;-67
2024/03/04 20:51:13;;;;;;;43.42;31.13;;;8.20;99.90;;;9.03;100.00;97453.69;10351863;28;20399;-65
2024/03/04 20:56:16;;;;;;;44.35;30.20;;;8.20;99.90;;;9.00;100.00;97456.06;10335218;28;20285;-66
2024/03/04 21:01:19;;;;;;;41.13;29.57;;;8.20;99.90;;;9.02;100.00;97465.56;10334490;28;20229;-67